sensor_id;sensor_type;location;lat;lon;timestamp;temperature;humidity
6486;DHT22;3276;48.490;9.222;2023-06-22T00:00:42;21.10;22.80
6486;DHT22;3276;48.490;9.222;2023-06-22T00:03:08;21.10;22.60
6486;DHT22;3276;48.490;9.222;2023-06-22T00:05:33;21.10;22.70
6486;DHT22;3276;48.490;9.222;2023-06-22T00:08:02;21.10;22.30
6486;DHT22;3276;48.490;9.222;2023-06-22T00:10:28;21.10;22.80
6486;DHT22;3276;48.490;9.222;2023-06-22T00:12:54;21.10;22.40
6486;DHT22;3276;48.490;9.222;2023-06-22T00:15:19;21.10;22.40
6486;DHT22;3276;48.490;9.222;2023-06-22T00:17:45;21.00;23.10
6486;DHT22;3276;48.490;9.222;2023-06-22T00:20:11;21.00;23.30
6486;DHT22;3276;48.490;9.222;2023-06-22T00:22:36;20.90;23.90
6486;DHT22;3276;48.490;9.222;2023-06-22T00:25:08;20.80;25.00
6486;DHT22;3276;48.490;9.222;2023-06-22T00:27:35;20.80;24.80
6486;DHT22;3276;48.490;9.222;2023-06-22T00:30:00;20.80;24.80
6486;DHT22;3276;48.490;9.222;2023-06-22T00:32:26;20.80;24.80
6486;DHT22;3276;48.490;9.222;2023-06-22T00:34:51;20.80;25.80
6486;DHT22;3276;48.490;9.222;2023-06-22T00:37:18;20.70;25.70
6486;DHT22;3276;48.490;9.222;2023-06-22T00:39:43;20.70;25.70
6486;DHT22;3276;48.490;9.222;2023-06-22T00:42:09;20.70;25.70
6486;DHT22;3276;48.490;9.222;2023-06-22T00:44:35;20.60;25.90
6486;DHT22;3276;48.490;9.222;2023-06-22T00:47:01;20.50;27.00
6486;DHT22;3276;48.490;9.222;2023-06-22T00:49:28;20.50;26.90
6486;DHT22;3276;48.490;9.222;2023-06-22T00:51:53;20.50;27.70
6486;DHT22;3276;48.490;9.222;2023-06-22T00:54:20;20.40;27.10
6486;DHT22;3276;48.490;9.222;2023-06-22T00:56:53;20.30;27.80
6486;DHT22;3276;48.490;9.222;2023-06-22T00:59:21;20.20;29.50
6486;DHT22;3276;48.490;9.222;2023-06-22T01:01:47;20.10;30.10
6486;DHT22;3276;48.490;9.222;2023-06-22T01:04:13;20.00;31.30
6486;DHT22;3276;48.490;9.222;2023-06-22T01:06:46;20.00;31.20
6486;DHT22;3276;48.490;9.222;2023-06-22T01:09:22;19.90;31.00
6486;DHT22;3276;48.490;9.222;2023-06-22T01:11:54;19.90;31.30
6486;DHT22;3276;48.490;9.222;2023-06-22T01:16:59;19.90;31.60
6486;DHT22;3276;48.490;9.222;2023-06-22T01:19:35;19.70;32.90
6486;DHT22;3276;48.490;9.222;2023-06-22T01:22:05;19.80;32.30
6486;DHT22;3276;48.490;9.222;2023-06-22T01:27:19;19.80;33.20
6486;DHT22;3276;48.490;9.222;2023-06-22T01:29:51;19.70;33.70
6486;DHT22;3276;48.490;9.222;2023-06-22T01:32:18;19.70;33.60
6486;DHT22;3276;48.490;9.222;2023-06-22T01:34:45;19.70;34.30
6486;DHT22;3276;48.490;9.222;2023-06-22T01:37:13;19.70;34.30
6486;DHT22;3276;48.490;9.222;2023-06-22T01:39:39;19.60;34.20
6486;DHT22;3276;48.490;9.222;2023-06-22T01:42:05;19.60;34.20
6486;DHT22;3276;48.490;9.222;2023-06-22T01:44:31;19.50;34.10
6486;DHT22;3276;48.490;9.222;2023-06-22T01:46:58;19.50;35.50
6486;DHT22;3276;48.490;9.222;2023-06-22T01:49:24;19.40;35.60
6486;DHT22;3276;48.490;9.222;2023-06-22T01:51:49;19.40;36.40
6486;DHT22;3276;48.490;9.222;2023-06-22T01:54:15;19.30;37.00
6486;DHT22;3276;48.490;9.222;2023-06-22T01:56:41;19.20;37.60
6486;DHT22;3276;48.490;9.222;2023-06-22T01:59:34;19.20;38.40
6486;DHT22;3276;48.490;9.222;2023-06-22T02:02:10;19.10;38.50
6486;DHT22;3276;48.490;9.222;2023-06-22T02:04:46;19.10;39.00
6486;DHT22;3276;48.490;9.222;2023-06-22T02:07:14;19.00;39.60
6486;DHT22;3276;48.490;9.222;2023-06-22T02:09:44;19.00;39.50
6486;DHT22;3276;48.490;9.222;2023-06-22T02:12:12;18.90;40.30
6486;DHT22;3276;48.490;9.222;2023-06-22T02:14:39;18.90;40.80
6486;DHT22;3276;48.490;9.222;2023-06-22T02:17:07;18.80;39.90
6486;DHT22;3276;48.490;9.222;2023-06-22T02:19:38;18.80;41.20
6486;DHT22;3276;48.490;9.222;2023-06-22T02:22:07;18.80;41.80
6486;DHT22;3276;48.490;9.222;2023-06-22T02:24:33;18.80;41.10
6486;DHT22;3276;48.490;9.222;2023-06-22T02:27:00;18.80;41.60
6486;DHT22;3276;48.490;9.222;2023-06-22T02:29:26;18.80;41.70
6486;DHT22;3276;48.490;9.222;2023-06-22T02:31:53;18.80;42.20
6486;DHT22;3276;48.490;9.222;2023-06-22T02:34:19;18.80;42.80
6486;DHT22;3276;48.490;9.222;2023-06-22T02:36:48;18.80;42.50
6486;DHT22;3276;48.490;9.222;2023-06-22T02:39:25;18.70;43.90
6486;DHT22;3276;48.490;9.222;2023-06-22T02:41:56;18.70;43.90
6486;DHT22;3276;48.490;9.222;2023-06-22T02:44:22;18.60;43.80
6486;DHT22;3276;48.490;9.222;2023-06-22T02:46:48;18.60;44.30
6486;DHT22;3276;48.490;9.222;2023-06-22T02:49:14;18.60;43.90
6486;DHT22;3276;48.490;9.222;2023-06-22T02:51:46;18.60;43.80
6486;DHT22;3276;48.490;9.222;2023-06-22T02:54:11;18.60;43.80
6486;DHT22;3276;48.490;9.222;2023-06-22T02:56:37;18.60;43.80
6486;DHT22;3276;48.490;9.222;2023-06-22T02:59:03;18.60;43.80
6486;DHT22;3276;48.490;9.222;2023-06-22T03:01:29;18.50;44.30
6486;DHT22;3276;48.490;9.222;2023-06-22T03:03:56;18.50;43.70
6486;DHT22;3276;48.490;9.222;2023-06-22T03:06:22;18.40;45.10
6486;DHT22;3276;48.490;9.222;2023-06-22T03:08:51;18.40;45.40
6486;DHT22;3276;48.490;9.222;2023-06-22T03:11:16;18.40;45.30
6486;DHT22;3276;48.490;9.222;2023-06-22T03:13:42;18.30;46.20
6486;DHT22;3276;48.490;9.222;2023-06-22T03:16:08;18.30;45.00
6486;DHT22;3276;48.490;9.222;2023-06-22T03:18:33;18.30;44.60
6486;DHT22;3276;48.490;9.222;2023-06-22T03:20:59;18.30;44.70
6486;DHT22;3276;48.490;9.222;2023-06-22T03:23:25;18.30;44.90
6486;DHT22;3276;48.490;9.222;2023-06-22T03:25:51;18.30;45.00
6486;DHT22;3276;48.490;9.222;2023-06-22T03:28:16;18.30;44.60
6486;DHT22;3276;48.490;9.222;2023-06-22T03:30:43;18.30;44.80
6486;DHT22;3276;48.490;9.222;2023-06-22T03:33:08;18.30;45.60
6486;DHT22;3276;48.490;9.222;2023-06-22T03:35:34;18.30;44.50
6486;DHT22;3276;48.490;9.222;2023-06-22T03:37:59;18.30;43.80
6486;DHT22;3276;48.490;9.222;2023-06-22T03:40:25;18.20;44.40
6486;DHT22;3276;48.490;9.222;2023-06-22T03:42:50;18.30;44.20
6486;DHT22;3276;48.490;9.222;2023-06-22T03:45:16;18.30;43.60
6486;DHT22;3276;48.490;9.222;2023-06-22T03:47:41;18.30;43.60
6486;DHT22;3276;48.490;9.222;2023-06-22T03:50:10;18.30;43.60
6486;DHT22;3276;48.490;9.222;2023-06-22T03:52:36;18.30;43.60
6486;DHT22;3276;48.490;9.222;2023-06-22T03:55:02;18.40;43.70
6486;DHT22;3276;48.490;9.222;2023-06-22T03:57:27;18.50;43.10
6486;DHT22;3276;48.490;9.222;2023-06-22T04:00:01;18.50;42.50
6486;DHT22;3276;48.490;9.222;2023-06-22T04:02:28;18.50;42.40
6486;DHT22;3276;48.490;9.222;2023-06-22T04:04:54;18.60;41.40
6486;DHT22;3276;48.490;9.222;2023-06-22T04:07:19;18.60;41.60
6486;DHT22;3276;48.490;9.222;2023-06-22T04:09:45;18.60;41.90
6486;DHT22;3276;48.490;9.222;2023-06-22T04:12:10;18.70;39.80
6486;DHT22;3276;48.490;9.222;2023-06-22T04:14:36;18.70;40.30
6486;DHT22;3276;48.490;9.222;2023-06-22T04:17:02;18.80;38.80
6486;DHT22;3276;48.490;9.222;2023-06-22T04:19:28;19.00;37.00
6486;DHT22;3276;48.490;9.222;2023-06-22T04:21:53;19.00;36.70
6486;DHT22;3276;48.490;9.222;2023-06-22T04:24:19;19.20;35.90
6486;DHT22;3276;48.490;9.222;2023-06-22T04:26:44;19.20;34.50
6486;DHT22;3276;48.490;9.222;2023-06-22T04:29:13;19.30;33.90
6486;DHT22;3276;48.490;9.222;2023-06-22T04:31:39;19.40;33.50
6486;DHT22;3276;48.490;9.222;2023-06-22T04:34:06;19.40;33.00
6486;DHT22;3276;48.490;9.222;2023-06-22T04:36:34;19.50;32.50
6486;DHT22;3276;48.490;9.222;2023-06-22T04:39:04;19.60;31.60
6486;DHT22;3276;48.490;9.222;2023-06-22T04:41:30;19.70;31.30
6486;DHT22;3276;48.490;9.222;2023-06-22T04:44:24;19.80;29.90
6486;DHT22;3276;48.490;9.222;2023-06-22T04:46:57;19.90;29.40
6486;DHT22;3276;48.490;9.222;2023-06-22T04:49:28;20.00;28.80
6486;DHT22;3276;48.490;9.222;2023-06-22T04:51:59;20.20;28.50
6486;DHT22;3276;48.490;9.222;2023-06-22T04:54:24;20.20;28.00
6486;DHT22;3276;48.490;9.222;2023-06-22T04:56:50;20.30;27.10
6486;DHT22;3276;48.490;9.222;2023-06-22T04:59:28;20.50;26.80
6486;DHT22;3276;48.490;9.222;2023-06-22T05:01:56;20.70;25.70
6486;DHT22;3276;48.490;9.222;2023-06-22T05:04:22;20.70;25.70
6486;DHT22;3276;48.490;9.222;2023-06-22T05:06:51;20.80;25.80
6486;DHT22;3276;48.490;9.222;2023-06-22T05:09:18;20.80;25.80
6486;DHT22;3276;48.490;9.222;2023-06-22T05:11:44;20.80;25.80
6486;DHT22;3276;48.490;9.222;2023-06-22T05:14:09;20.90;25.80
6486;DHT22;3276;48.490;9.222;2023-06-22T05:16:36;20.90;25.80
6486;DHT22;3276;48.490;9.222;2023-06-22T05:19:02;21.00;25.90
6486;DHT22;3276;48.490;9.222;2023-06-22T05:21:29;21.00;25.30
6486;DHT22;3276;48.490;9.222;2023-06-22T05:23:56;21.00;25.40
6486;DHT22;3276;48.490;9.222;2023-06-22T05:26:26;21.00;24.90
6486;DHT22;3276;48.490;9.222;2023-06-22T05:28:52;21.20;24.30
6486;DHT22;3276;48.490;9.222;2023-06-22T05:31:18;21.40;23.90
6486;DHT22;3276;48.490;9.222;2023-06-22T05:33:47;21.70;23.00
6486;DHT22;3276;48.490;9.222;2023-06-22T05:36:14;22.00;22.30
6486;DHT22;3276;48.490;9.222;2023-06-22T05:38:40;22.60;20.30
6486;DHT22;3276;48.490;9.222;2023-06-22T05:41:06;22.90;18.50
6486;DHT22;3276;48.490;9.222;2023-06-22T05:43:33;23.50;16.70
6486;DHT22;3276;48.490;9.222;2023-06-22T05:46:00;24.90;13.50
6486;DHT22;3276;48.490;9.222;2023-06-22T05:48:25;26.00;8.90
6486;DHT22;3276;48.490;9.222;2023-06-22T05:50:51;27.70;6.00
6486;DHT22;3276;48.490;9.222;2023-06-22T05:53:17;28.80;1.90
6486;DHT22;3276;48.490;9.222;2023-06-22T05:55:42;30.00;1.00
6486;DHT22;3276;48.490;9.222;2023-06-22T05:58:08;31.30;1.00
6486;DHT22;3276;48.490;9.222;2023-06-22T06:00:34;32.50;1.00
6486;DHT22;3276;48.490;9.222;2023-06-22T06:03:00;33.70;1.00
6486;DHT22;3276;48.490;9.222;2023-06-22T06:05:32;35.10;1.00
6486;DHT22;3276;48.490;9.222;2023-06-22T06:07:59;35.60;1.00
6486;DHT22;3276;48.490;9.222;2023-06-22T06:10:25;36.40;1.00
6486;DHT22;3276;48.490;9.222;2023-06-22T06:12:52;36.80;1.00
6486;DHT22;3276;48.490;9.222;2023-06-22T06:15:17;37.00;1.00
6486;DHT22;3276;48.490;9.222;2023-06-22T06:17:52;36.80;1.00
6486;DHT22;3276;48.490;9.222;2023-06-22T06:20:21;37.60;1.00
6486;DHT22;3276;48.490;9.222;2023-06-22T06:22:47;38.00;1.00
6486;DHT22;3276;48.490;9.222;2023-06-22T06:25:13;38.20;1.00
6486;DHT22;3276;48.490;9.222;2023-06-22T06:27:42;38.70;1.00
6486;DHT22;3276;48.490;9.222;2023-06-22T06:30:10;39.20;1.00
6486;DHT22;3276;48.490;9.222;2023-06-22T06:32:36;39.70;1.00
6486;DHT22;3276;48.490;9.222;2023-06-22T06:35:01;39.50;1.00
6486;DHT22;3276;48.490;9.222;2023-06-22T06:37:27;40.10;1.00
6486;DHT22;3276;48.490;9.222;2023-06-22T06:39:53;40.10;1.00
6486;DHT22;3276;48.490;9.222;2023-06-22T06:42:19;40.30;1.00
6486;DHT22;3276;48.490;9.222;2023-06-22T06:44:45;40.00;1.00
6486;DHT22;3276;48.490;9.222;2023-06-22T06:47:11;40.30;1.00
6486;DHT22;3276;48.490;9.222;2023-06-22T06:49:36;40.10;1.00
6486;DHT22;3276;48.490;9.222;2023-06-22T06:52:02;40.00;1.00
6486;DHT22;3276;48.490;9.222;2023-06-22T06:54:27;39.70;1.00
6486;DHT22;3276;48.490;9.222;2023-06-22T06:56:53;40.10;1.00
6486;DHT22;3276;48.490;9.222;2023-06-22T06:59:19;40.10;1.00
6486;DHT22;3276;48.490;9.222;2023-06-22T07:01:44;40.60;1.00
6486;DHT22;3276;48.490;9.222;2023-06-22T07:04:10;41.20;1.00
6486;DHT22;3276;48.490;9.222;2023-06-22T07:06:36;41.00;1.00
6486;DHT22;3276;48.490;9.222;2023-06-22T07:09:03;41.00;1.00
6486;DHT22;3276;48.490;9.222;2023-06-22T07:11:29;41.20;1.00
6486;DHT22;3276;48.490;9.222;2023-06-22T07:13:54;41.00;1.00
6486;DHT22;3276;48.490;9.222;2023-06-22T07:16:20;40.90;1.00
6486;DHT22;3276;48.490;9.222;2023-06-22T07:18:45;40.70;1.00
6486;DHT22;3276;48.490;9.222;2023-06-22T07:21:11;41.20;1.00
6486;DHT22;3276;48.490;9.222;2023-06-22T07:23:36;41.50;1.00
6486;DHT22;3276;48.490;9.222;2023-06-22T07:26:02;41.10;1.00
6486;DHT22;3276;48.490;9.222;2023-06-22T07:28:28;41.60;1.00
6486;DHT22;3276;48.490;9.222;2023-06-22T07:30:56;41.70;1.00
6486;DHT22;3276;48.490;9.222;2023-06-22T07:33:22;41.30;1.00
6486;DHT22;3276;48.490;9.222;2023-06-22T07:35:47;41.80;1.00
6486;DHT22;3276;48.490;9.222;2023-06-22T07:38:13;41.70;1.00
6486;DHT22;3276;48.490;9.222;2023-06-22T07:40:40;40.90;1.00
6486;DHT22;3276;48.490;9.222;2023-06-22T07:43:09;39.80;1.00
6486;DHT22;3276;48.490;9.222;2023-06-22T07:45:35;40.30;1.00
6486;DHT22;3276;48.490;9.222;2023-06-22T07:48:01;40.90;1.00
6486;DHT22;3276;48.490;9.222;2023-06-22T07:50:27;40.60;1.00
6486;DHT22;3276;48.490;9.222;2023-06-22T07:52:52;40.20;1.00
6486;DHT22;3276;48.490;9.222;2023-06-22T07:55:18;41.10;1.00
6486;DHT22;3276;48.490;9.222;2023-06-22T07:57:46;40.90;1.00
6486;DHT22;3276;48.490;9.222;2023-06-22T08:00:12;40.70;1.00
6486;DHT22;3276;48.490;9.222;2023-06-22T08:02:42;41.00;1.00
6486;DHT22;3276;48.490;9.222;2023-06-22T08:05:09;40.10;1.00
6486;DHT22;3276;48.490;9.222;2023-06-22T08:07:38;39.80;1.00
6486;DHT22;3276;48.490;9.222;2023-06-22T08:10:09;39.30;1.00
6486;DHT22;3276;48.490;9.222;2023-06-22T08:12:35;39.50;1.00
6486;DHT22;3276;48.490;9.222;2023-06-22T08:15:01;39.20;1.00
6486;DHT22;3276;48.490;9.222;2023-06-22T08:17:26;39.40;1.00
6486;DHT22;3276;48.490;9.222;2023-06-22T08:19:52;39.50;1.00
6486;DHT22;3276;48.490;9.222;2023-06-22T08:22:18;38.90;1.00
6486;DHT22;3276;48.490;9.222;2023-06-22T08:24:47;39.40;1.00
6486;DHT22;3276;48.490;9.222;2023-06-22T08:27:12;39.90;1.00
6486;DHT22;3276;48.490;9.222;2023-06-22T08:29:39;39.70;1.00
6486;DHT22;3276;48.490;9.222;2023-06-22T08:32:05;39.20;1.00
6486;DHT22;3276;48.490;9.222;2023-06-22T08:34:30;40.70;1.00
6486;DHT22;3276;48.490;9.222;2023-06-22T08:36:56;39.60;1.00
6486;DHT22;3276;48.490;9.222;2023-06-22T08:39:22;40.80;1.00
6486;DHT22;3276;48.490;9.222;2023-06-22T08:41:48;39.50;1.00
6486;DHT22;3276;48.490;9.222;2023-06-22T08:44:15;38.40;1.00
6486;DHT22;3276;48.490;9.222;2023-06-22T08:46:40;36.40;1.00
6486;DHT22;3276;48.490;9.222;2023-06-22T08:49:07;35.70;1.00
6486;DHT22;3276;48.490;9.222;2023-06-22T08:51:35;35.50;1.00
6486;DHT22;3276;48.490;9.222;2023-06-22T08:54:01;35.80;1.00
6486;DHT22;3276;48.490;9.222;2023-06-22T08:56:26;36.90;1.00
6486;DHT22;3276;48.490;9.222;2023-06-22T08:58:52;38.20;1.00
6486;DHT22;3276;48.490;9.222;2023-06-22T09:01:17;38.90;1.00
6486;DHT22;3276;48.490;9.222;2023-06-22T09:03:43;41.10;1.00
6486;DHT22;3276;48.490;9.222;2023-06-22T09:06:08;42.40;1.00
6486;DHT22;3276;48.490;9.222;2023-06-22T09:08:39;41.90;1.00
6486;DHT22;3276;48.490;9.222;2023-06-22T09:11:04;43.10;1.00
6486;DHT22;3276;48.490;9.222;2023-06-22T09:13:31;42.40;1.00
6486;DHT22;3276;48.490;9.222;2023-06-22T09:15:57;41.70;1.00
6486;DHT22;3276;48.490;9.222;2023-06-22T09:18:22;40.00;1.00
6486;DHT22;3276;48.490;9.222;2023-06-22T09:20:48;38.40;1.00
6486;DHT22;3276;48.490;9.222;2023-06-22T09:23:14;38.00;1.00
6486;DHT22;3276;48.490;9.222;2023-06-22T09:25:40;36.30;1.00
6486;DHT22;3276;48.490;9.222;2023-06-22T09:28:06;34.80;1.00
6486;DHT22;3276;48.490;9.222;2023-06-22T09:30:31;33.50;1.00
6486;DHT22;3276;48.490;9.222;2023-06-22T09:32:57;32.60;1.00
6486;DHT22;3276;48.490;9.222;2023-06-22T09:35:23;32.30;1.00
6486;DHT22;3276;48.490;9.222;2023-06-22T09:37:48;32.20;1.00
6486;DHT22;3276;48.490;9.222;2023-06-22T09:40:14;32.10;1.00
6486;DHT22;3276;48.490;9.222;2023-06-22T09:42:44;31.80;1.00
6486;DHT22;3276;48.490;9.222;2023-06-22T09:45:10;31.60;1.00
6486;DHT22;3276;48.490;9.222;2023-06-22T09:47:36;31.70;1.00
6486;DHT22;3276;48.490;9.222;2023-06-22T09:50:02;31.60;1.00
6486;DHT22;3276;48.490;9.222;2023-06-22T09:52:27;31.70;1.00
6486;DHT22;3276;48.490;9.222;2023-06-22T09:54:53;31.80;1.00
6486;DHT22;3276;48.490;9.222;2023-06-22T09:57:19;31.90;1.00
6486;DHT22;3276;48.490;9.222;2023-06-22T09:59:44;32.20;1.00
6486;DHT22;3276;48.490;9.222;2023-06-22T10:02:10;32.60;1.00
6486;DHT22;3276;48.490;9.222;2023-06-22T10:04:35;32.70;1.00
6486;DHT22;3276;48.490;9.222;2023-06-22T10:07:02;32.60;1.00
6486;DHT22;3276;48.490;9.222;2023-06-22T10:09:27;32.90;1.00
6486;DHT22;3276;48.490;9.222;2023-06-22T10:11:53;33.10;1.00
6486;DHT22;3276;48.490;9.222;2023-06-22T10:14:19;33.00;1.00
6486;DHT22;3276;48.490;9.222;2023-06-22T10:16:44;32.90;1.00
6486;DHT22;3276;48.490;9.222;2023-06-22T10:19:10;33.30;1.00
6486;DHT22;3276;48.490;9.222;2023-06-22T10:21:36;33.30;1.00
6486;DHT22;3276;48.490;9.222;2023-06-22T10:24:02;33.30;1.00
6486;DHT22;3276;48.490;9.222;2023-06-22T10:26:35;33.10;1.00
6486;DHT22;3276;48.490;9.222;2023-06-22T10:29:02;33.00;1.00
6486;DHT22;3276;48.490;9.222;2023-06-22T10:31:28;32.70;1.00
6486;DHT22;3276;48.490;9.222;2023-06-22T10:33:54;32.70;1.00
6486;DHT22;3276;48.490;9.222;2023-06-22T10:36:21;32.90;1.00
6486;DHT22;3276;48.490;9.222;2023-06-22T10:38:47;32.90;1.00
6486;DHT22;3276;48.490;9.222;2023-06-22T10:41:13;32.80;1.00
6486;DHT22;3276;48.490;9.222;2023-06-22T10:43:39;32.80;1.00
6486;DHT22;3276;48.490;9.222;2023-06-22T10:46:05;32.90;1.00
6486;DHT22;3276;48.490;9.222;2023-06-22T10:48:30;33.40;1.00
6486;DHT22;3276;48.490;9.222;2023-06-22T10:50:56;33.60;1.00
6486;DHT22;3276;48.490;9.222;2023-06-22T10:53:21;34.00;1.00
6486;DHT22;3276;48.490;9.222;2023-06-22T10:55:47;34.60;1.00
6486;DHT22;3276;48.490;9.222;2023-06-22T10:58:13;34.70;1.00
6486;DHT22;3276;48.490;9.222;2023-06-22T11:00:38;34.50;1.00
6486;DHT22;3276;48.490;9.222;2023-06-22T11:03:04;34.70;1.00
6486;DHT22;3276;48.490;9.222;2023-06-22T11:05:29;34.90;1.00
6486;DHT22;3276;48.490;9.222;2023-06-22T11:07:55;34.80;1.00
6486;DHT22;3276;48.490;9.222;2023-06-22T11:10:21;35.40;1.00
6486;DHT22;3276;48.490;9.222;2023-06-22T11:12:46;35.70;1.00
6486;DHT22;3276;48.490;9.222;2023-06-22T11:15:12;35.60;1.00
6486;DHT22;3276;48.490;9.222;2023-06-22T11:17:37;35.70;1.00
6486;DHT22;3276;48.490;9.222;2023-06-22T11:20:03;35.40;1.00
6486;DHT22;3276;48.490;9.222;2023-06-22T11:22:39;35.10;1.00
6486;DHT22;3276;48.490;9.222;2023-06-22T11:25:06;35.10;1.00
6486;DHT22;3276;48.490;9.222;2023-06-22T11:27:32;35.60;1.00
6486;DHT22;3276;48.490;9.222;2023-06-22T11:29:57;35.60;1.00
6486;DHT22;3276;48.490;9.222;2023-06-22T11:32:23;35.70;1.00
6486;DHT22;3276;48.490;9.222;2023-06-22T11:34:49;35.90;1.00
6486;DHT22;3276;48.490;9.222;2023-06-22T11:37:14;35.80;1.00
6486;DHT22;3276;48.490;9.222;2023-06-22T11:39:41;35.70;1.00
6486;DHT22;3276;48.490;9.222;2023-06-22T11:42:07;35.50;1.00
6486;DHT22;3276;48.490;9.222;2023-06-22T11:44:34;35.20;1.00
6486;DHT22;3276;48.490;9.222;2023-06-22T11:46:59;35.20;1.00
6486;DHT22;3276;48.490;9.222;2023-06-22T11:49:26;34.70;1.00
6486;DHT22;3276;48.490;9.222;2023-06-22T11:51:52;35.10;1.00
6486;DHT22;3276;48.490;9.222;2023-06-22T11:54:18;35.20;1.00
6486;DHT22;3276;48.490;9.222;2023-06-22T11:56:43;35.30;1.00
6486;DHT22;3276;48.490;9.222;2023-06-22T11:59:09;35.50;1.00
6486;DHT22;3276;48.490;9.222;2023-06-22T12:01:34;35.80;1.00
6486;DHT22;3276;48.490;9.222;2023-06-22T12:04:00;36.20;1.00
6486;DHT22;3276;48.490;9.222;2023-06-22T12:06:25;36.10;1.00
6486;DHT22;3276;48.490;9.222;2023-06-22T12:08:51;36.00;1.00
6486;DHT22;3276;48.490;9.222;2023-06-22T12:11:16;35.80;1.00
6486;DHT22;3276;48.490;9.222;2023-06-22T12:13:42;35.70;1.00
6486;DHT22;3276;48.490;9.222;2023-06-22T12:16:07;35.40;1.00
6486;DHT22;3276;48.490;9.222;2023-06-22T12:18:33;35.40;1.00
6486;DHT22;3276;48.490;9.222;2023-06-22T12:20:59;35.30;1.00
6486;DHT22;3276;48.490;9.222;2023-06-22T12:23:24;35.00;1.00
6486;DHT22;3276;48.490;9.222;2023-06-22T12:25:50;34.70;1.00
6486;DHT22;3276;48.490;9.222;2023-06-22T12:28:15;34.50;1.00
6486;DHT22;3276;48.490;9.222;2023-06-22T12:30:41;34.10;1.00
6486;DHT22;3276;48.490;9.222;2023-06-22T12:33:06;33.40;1.00
6486;DHT22;3276;48.490;9.222;2023-06-22T12:35:32;33.00;1.00
6486;DHT22;3276;48.490;9.222;2023-06-22T12:37:58;32.60;1.00
6486;DHT22;3276;48.490;9.222;2023-06-22T12:40:24;32.50;1.00
6486;DHT22;3276;48.490;9.222;2023-06-22T12:42:49;32.10;1.00
6486;DHT22;3276;48.490;9.222;2023-06-22T12:45:18;32.10;1.00
6486;DHT22;3276;48.490;9.222;2023-06-22T12:47:45;32.40;1.00
6486;DHT22;3276;48.490;9.222;2023-06-22T12:50:11;32.50;1.00
6486;DHT22;3276;48.490;9.222;2023-06-22T12:52:37;32.70;1.00
6486;DHT22;3276;48.490;9.222;2023-06-22T12:55:05;32.60;1.00
6486;DHT22;3276;48.490;9.222;2023-06-22T12:57:31;32.80;1.00
6486;DHT22;3276;48.490;9.222;2023-06-22T12:59:56;33.10;1.00
6486;DHT22;3276;48.490;9.222;2023-06-22T13:02:23;33.10;1.00
6486;DHT22;3276;48.490;9.222;2023-06-22T13:04:49;33.20;1.00
6486;DHT22;3276;48.490;9.222;2023-06-22T13:07:15;33.60;1.00
6486;DHT22;3276;48.490;9.222;2023-06-22T13:09:40;33.90;1.00
6486;DHT22;3276;48.490;9.222;2023-06-22T13:12:06;33.90;1.00
6486;DHT22;3276;48.490;9.222;2023-06-22T13:14:32;34.00;1.00
6486;DHT22;3276;48.490;9.222;2023-06-22T13:16:57;34.40;1.00
6486;DHT22;3276;48.490;9.222;2023-06-22T13:19:23;34.70;1.00
6486;DHT22;3276;48.490;9.222;2023-06-22T13:21:48;35.10;1.00
6486;DHT22;3276;48.490;9.222;2023-06-22T13:24:14;35.50;1.00
6486;DHT22;3276;48.490;9.222;2023-06-22T13:26:39;35.50;1.00
6486;DHT22;3276;48.490;9.222;2023-06-22T13:29:05;35.50;1.00
6486;DHT22;3276;48.490;9.222;2023-06-22T13:31:30;35.60;1.00
6486;DHT22;3276;48.490;9.222;2023-06-22T13:33:56;35.80;1.00
6486;DHT22;3276;48.490;9.222;2023-06-22T13:36:21;35.70;1.00
6486;DHT22;3276;48.490;9.222;2023-06-22T13:38:48;35.50;1.00
6486;DHT22;3276;48.490;9.222;2023-06-22T13:41:14;34.90;1.00
6486;DHT22;3276;48.490;9.222;2023-06-22T13:43:40;34.60;1.00
6486;DHT22;3276;48.490;9.222;2023-06-22T13:46:06;34.70;1.00
6486;DHT22;3276;48.490;9.222;2023-06-22T13:48:32;34.90;1.00
6486;DHT22;3276;48.490;9.222;2023-06-22T13:50:57;34.90;1.00
6486;DHT22;3276;48.490;9.222;2023-06-22T13:53:24;34.50;1.00
6486;DHT22;3276;48.490;9.222;2023-06-22T13:55:51;34.30;1.00
6486;DHT22;3276;48.490;9.222;2023-06-22T13:58:16;34.40;1.00
6486;DHT22;3276;48.490;9.222;2023-06-22T14:00:42;34.20;1.00
6486;DHT22;3276;48.490;9.222;2023-06-22T14:03:07;33.90;1.00
6486;DHT22;3276;48.490;9.222;2023-06-22T14:05:33;34.20;1.00
6486;DHT22;3276;48.490;9.222;2023-06-22T14:07:58;34.00;1.00
6486;DHT22;3276;48.490;9.222;2023-06-22T14:10:24;34.10;1.00
6486;DHT22;3276;48.490;9.222;2023-06-22T14:12:49;33.90;1.00
6486;DHT22;3276;48.490;9.222;2023-06-22T14:15:15;33.80;1.00
6486;DHT22;3276;48.490;9.222;2023-06-22T14:17:40;33.90;1.00
6486;DHT22;3276;48.490;9.222;2023-06-22T14:20:06;33.70;1.00
6486;DHT22;3276;48.490;9.222;2023-06-22T14:22:33;33.90;1.00
6486;DHT22;3276;48.490;9.222;2023-06-22T14:25:00;34.20;1.00
6486;DHT22;3276;48.490;9.222;2023-06-22T14:27:27;34.60;1.00
6486;DHT22;3276;48.490;9.222;2023-06-22T14:29:52;34.80;1.00
6486;DHT22;3276;48.490;9.222;2023-06-22T14:32:18;34.90;1.00
6486;DHT22;3276;48.490;9.222;2023-06-22T14:34:44;34.80;1.00
6486;DHT22;3276;48.490;9.222;2023-06-22T14:37:10;35.00;1.00
6486;DHT22;3276;48.490;9.222;2023-06-22T14:39:37;34.90;1.00
6486;DHT22;3276;48.490;9.222;2023-06-22T14:42:03;34.90;1.00
6486;DHT22;3276;48.490;9.222;2023-06-22T14:44:29;34.70;1.00
6486;DHT22;3276;48.490;9.222;2023-06-22T14:46:56;34.80;1.00
6486;DHT22;3276;48.490;9.222;2023-06-22T14:49:21;34.70;1.00
6486;DHT22;3276;48.490;9.222;2023-06-22T14:51:47;34.60;1.00
6486;DHT22;3276;48.490;9.222;2023-06-22T14:54:13;34.30;1.00
6486;DHT22;3276;48.490;9.222;2023-06-22T14:56:38;34.30;1.00
6486;DHT22;3276;48.490;9.222;2023-06-22T14:59:04;34.40;1.00
6486;DHT22;3276;48.490;9.222;2023-06-22T15:01:29;34.40;1.00
6486;DHT22;3276;48.490;9.222;2023-06-22T15:03:55;34.30;1.00
6486;DHT22;3276;48.490;9.222;2023-06-22T15:06:21;33.70;1.00
6486;DHT22;3276;48.490;9.222;2023-06-22T15:08:46;33.30;1.00
6486;DHT22;3276;48.490;9.222;2023-06-22T15:11:12;33.40;1.00
6486;DHT22;3276;48.490;9.222;2023-06-22T15:13:41;33.00;1.00
6486;DHT22;3276;48.490;9.222;2023-06-22T15:16:08;32.90;1.00
6486;DHT22;3276;48.490;9.222;2023-06-22T15:18:35;32.60;1.00
6486;DHT22;3276;48.490;9.222;2023-06-22T15:21:02;32.80;1.00
6486;DHT22;3276;48.490;9.222;2023-06-22T15:23:29;32.50;1.00
6486;DHT22;3276;48.490;9.222;2023-06-22T15:25:55;32.40;1.00
6486;DHT22;3276;48.490;9.222;2023-06-22T15:28:21;32.30;1.00
6486;DHT22;3276;48.490;9.222;2023-06-22T15:30:48;32.20;1.00
6486;DHT22;3276;48.490;9.222;2023-06-22T15:33:14;32.10;1.00
6486;DHT22;3276;48.490;9.222;2023-06-22T15:35:39;32.00;1.00
6486;DHT22;3276;48.490;9.222;2023-06-22T15:38:05;31.70;1.00
6486;DHT22;3276;48.490;9.222;2023-06-22T15:40:30;31.40;1.00
6486;DHT22;3276;48.490;9.222;2023-06-22T15:42:56;31.10;1.00
6486;DHT22;3276;48.490;9.222;2023-06-22T15:45:22;30.90;1.00
6486;DHT22;3276;48.490;9.222;2023-06-22T15:47:47;30.90;1.00
6486;DHT22;3276;48.490;9.222;2023-06-22T15:50:13;31.00;1.00
6486;DHT22;3276;48.490;9.222;2023-06-22T15:52:40;31.00;1.00
6486;DHT22;3276;48.490;9.222;2023-06-22T15:55:05;30.80;1.00
6486;DHT22;3276;48.490;9.222;2023-06-22T15:57:32;30.80;1.00
6486;DHT22;3276;48.490;9.222;2023-06-22T15:59:59;30.60;1.00
6486;DHT22;3276;48.490;9.222;2023-06-22T16:02:25;30.40;1.00
6486;DHT22;3276;48.490;9.222;2023-06-22T16:04:52;30.30;1.00
6486;DHT22;3276;48.490;9.222;2023-06-22T16:07:19;30.20;1.00
6486;DHT22;3276;48.490;9.222;2023-06-22T16:09:45;29.90;1.00
6486;DHT22;3276;48.490;9.222;2023-06-22T16:12:10;29.80;1.00